Language: 


Des rapports , des résumés tant et plus, au choix de chacun....


Données statistiques de la station
Quotidien Rapport Février 7, 2017 Unités:  Anglais    Métrique   les deux
« Précédent Jour
Suivant Jour »
Quotidien Hebdomadaire Mensuel Annuel Actuel
  Haut: Bas: Moyen:
Température: 45.3 °F 40.3 °F 42.8 °F
Pt de rosée: 45 °F 39.6 °F 42.1 °F
Humidité: 98 % 93 % 97 %
Vitesse du vent: 10.3 mph 0 mph 3 mph
Rafales: 14.5 mph - -
Vent:- - SSW
Pression: 30 in 29.9 in -
Précipitation: 0.11 in    
Historical Graphs
 
 
Données statistiques pour Février 7, 2017
Heure Température Point de rosée Pression Vent Vitesse du vent Refales Humidité Pluie (taux horaire)
00:00 42.4 °F 40.5 °F 30 in SSE 3.8 mph 6.3 mph 93 % 0 in
00:05 42.4 °F 40.5 °F 30 in SSE 2.7 mph 4.7 mph 93 % 0 in
00:10 42.4 °F 40.5 °F 30 in SSE 1.6 mph 3.8 mph 93 % 0 in
00:15 42.4 °F 40.5 °F 30 in SE 2.5 mph 3.6 mph 93 % 0 in
00:20 42.4 °F 40.5 °F 30 in SE 2 mph 4.7 mph 93 % 0 in
00:25 42.4 °F 40.5 °F 30 in SSE 2.5 mph 4.7 mph 93 % 0 in
00:30 42.4 °F 40.5 °F 30 in SSE 3.1 mph 3.8 mph 93 % 0 in
00:35 42.3 °F 40.5 °F 30 in Calm   3.4 mph 93 % 0 in
00:40 42.3 °F 40.5 °F 30 in South 2.7 mph 3.1 mph 93 % 0 in
00:45 42.3 °F 40.5 °F 30 in Calm   2.7 mph 93 % 0 in
00:50 42.3 °F 40.5 °F 30 in Calm   2.9 mph 93 % 0 in
00:55 42.3 °F 40.5 °F 30 in Calm   2.9 mph 93 % 0 in
01:00 42.3 °F 40.5 °F 30 in ESE 1.3 mph 2.7 mph 93 % 0 in
01:05 42.1 °F 40.3 °F 30 in Calm   2.7 mph 93 % 0 in
01:10 42.1 °F 40.3 °F 29.9 in SE 2.5 mph 3.6 mph 93 % 0 in
01:15 42.1 °F 40.3 °F 29.9 in SE 0.9 mph 4 mph 93 % 0 in
01:20 42.1 °F 40.3 °F 29.9 in SE 1.3 mph 4 mph 93 % 0 in
01:25 42.1 °F 40.3 °F 30 in ESE 1.3 mph 3.6 mph 93 % 0 in
01:30 42.1 °F 40.3 °F 30 in SE 3.8 mph 4.9 mph 93 % 0 in
01:35 42.1 °F 40.3 °F 30 in ESE 3.4 mph 4.9 mph 93 % 0 in
01:40 42.1 °F 40.3 °F 30 in SE 2.9 mph 6.5 mph 93 % 0 in
01:45 42.1 °F 40.3 °F 30 in SE 5.6 mph 6.5 mph 93 % 0 in
01:50 42.1 °F 40.3 °F 30 in SE 4 mph 5.6 mph 93 % 0 in
01:55 42.1 °F 40.3 °F 30 in ESE 3.1 mph 5.8 mph 93 % 0 in
02:02 42.1 °F 40.3 °F 30 in ESE 3.8 mph 5.6 mph 93 % 0 in
02:07 42.3 °F 40.5 °F 30 in SE 3.1 mph 5.6 mph 93 % 0 in
02:12 42.3 °F 40.5 °F 30 in SSE 3.1 mph 5.6 mph 93 % 0 in
02:17 42.3 °F 40.5 °F 30 in SSE 2.9 mph 4.9 mph 93 % 0 in
02:22 42.3 °F 40.5 °F 30 in SSW 2 mph 4 mph 93 % 0 in
02:27 42.3 °F 40.5 °F 30 in SSW 0.9 mph 4 mph 93 % 0 in
02:32 42.1 °F 40.3 °F 30 in Calm   3.4 mph 93 % 0 in
02:37 41.9 °F 40.3 °F 30 in Calm   2.7 mph 94 % 0 in
02:42 41.9 °F 40.3 °F 30 in Calm   4.7 mph 94 % 0 in
02:47 41.9 °F 40.3 °F 30 in Calm   4.7 mph 94 % 0 in
02:52 41.9 °F 40.3 °F 30 in Calm   3.4 mph 94 % 0 in
02:57 41.7 °F 40.1 °F 30 in SSE 1.3 mph 3.6 mph 94 % 0 in
03:02 41.7 °F 40.1 °F 30 in South 2.2 mph 3.6 mph 94 % 0.01 in
03:07 41.5 °F 40.3 °F 30 in Calm   2.2 mph 95 % 0.01 in
03:12 41.5 °F 40.3 °F 30 in Calm   2.9 mph 95 % 0.01 in
03:17 41.5 °F 40.3 °F 30 in SSE 1.1 mph 2.9 mph 95 % 0.01 in
03:22 41.4 °F 39.9 °F 29.9 in Calm   3.1 mph 95 % 0.01 in
03:27 41.4 °F 39.9 °F 29.9 in Calm   3.1 mph 95 % 0.01 in
03:32 41.4 °F 39.9 °F 29.9 in Calm   2.5 mph 95 % 0.01 in
03:37 41.4 °F 40.3 °F 29.9 in Calm   2.7 mph 96 % 0.01 in
03:42 41.4 °F 40.3 °F 29.9 in SSE 0.9 mph 3.8 mph 96 % 0.03 in
03:47 41.2 °F 40.1 °F 29.9 in SSE 2.9 mph 3.8 mph 96 % 0.03 in
03:52 41.2 °F 40.1 °F 29.9 in SSE 2 mph 4.9 mph 96 % 0.03 in
03:57 41.2 °F 40.1 °F 29.9 in SSE 5.4 mph 5.4 mph 96 % 0.03 in
04:02 41.2 °F 40.1 °F 29.9 in SSE 1.1 mph 5.4 mph 96 % 0.01 in
04:07 41.2 °F 40.1 °F 29.9 in SE 4.7 mph 6.5 mph 96 % 0.01 in
04:12 41.2 °F 40.5 °F 29.9 in South 4 mph 8.9 mph 97 % 0.02 in
04:17 41.2 °F 40.5 °F 29.9 in SSW 4.5 mph 8.9 mph 97 % 0.02 in
04:22 41.2 °F 40.5 °F 29.9 in SSE 6.7 mph 8.1 mph 97 % 0.02 in
04:27 41.2 °F 40.5 °F 29.9 in SSE 4.9 mph 7.8 mph 97 % 0.02 in
04:32 41.2 °F 40.5 °F 29.9 in Calm   7.8 mph 97 % 0.02 in
04:37 41.2 °F 40.5 °F 29.9 in SSE 4 mph 10.5 mph 97 % 0.03 in
04:42 41.2 °F 40.5 °F 29.9 in SSE 4.9 mph 10.5 mph 97 % 0.02 in
04:47 41.2 °F 40.5 °F 29.9 in South 5.6 mph 7.4 mph 97 % 0.02 in
04:52 41 °F 40.3 °F 29.9 in SSE 4.9 mph 8.1 mph 97 % 0.02 in
04:57 40.8 °F 39.9 °F 29.9 in SE 4.9 mph 8.1 mph 97 % 0.03 in
05:02 40.6 °F 39.9 °F 29.9 in SSE 5.8 mph 7.6 mph 97 % 0.03 in
05:07 40.5 °F 39.7 °F 29.9 in SSE 4 mph 7.6 mph 97 % 0.03 in
05:12 40.5 °F 39.7 °F 29.9 in SSE 3.4 mph 7.8 mph 97 % 0.02 in
05:17 40.5 °F 39.7 °F 29.9 in SSW 2.7 mph 8.5 mph 97 % 0.02 in
05:22 40.5 °F 39.7 °F 29.9 in SSE 3.6 mph 8.5 mph 97 % 0.02 in
05:27 40.5 °F 39.7 °F 29.9 in South 2.7 mph 8.1 mph 97 % 0.03 in
05:32 40.5 °F 39.7 °F 29.9 in SSE 6.3 mph 8.7 mph 97 % 0.03 in
05:37 40.5 °F 39.7 °F 29.9 in SSE 4.5 mph 8.7 mph 97 % 0.02 in
05:42 40.5 °F 39.7 °F 29.9 in SSE 3.1 mph 10.5 mph 97 % 0.02 in
05:47 40.3 °F 39.6 °F 29.9 in SSE 3.1 mph 10.5 mph 97 % 0.02 in
05:52 40.3 °F 39.6 °F 29.9 in South 6.3 mph 10.7 mph 97 % 0.02 in
05:57 40.3 °F 39.6 °F 29.9 in SSE 6.3 mph 10.7 mph 97 % 0.01 in
06:02 40.5 °F 39.9 °F 29.9 in South 7.6 mph 11.2 mph 98 % 0.01 in
06:07 40.5 °F 39.9 °F 29.9 in SSE 3.8 mph 12.3 mph 98 % 0.01 in
06:13 40.5 °F 39.7 °F 29.9 in SSE 5.4 mph 14.5 mph 97 % 0.01 in
06:18 40.5 °F 39.7 °F 29.9 in South 3.1 mph 14.5 mph 97 % 0.01 in
06:23 40.5 °F 39.7 °F 29.9 in SE 7.4 mph 11 mph 97 % 0 in
06:28 40.5 °F 39.7 °F 29.9 in SSE 5.6 mph 12.3 mph 97 % 0 in
06:33 40.5 °F 39.7 °F 29.9 in SSE 5.6 mph 12.3 mph 97 % 0 in
06:38 40.5 °F 39.7 °F 29.9 in South 3.6 mph 10.5 mph 97 % 0 in
06:43 40.5 °F 39.7 °F 29.9 in SSE 6.5 mph 10.1 mph 97 % 0 in
06:48 40.5 °F 39.7 °F 29.9 in SE 6.5 mph 12.8 mph 97 % 0 in
06:53 40.5 °F 39.7 °F 29.9 in SE 10.3 mph 12.8 mph 97 % 0 in
06:58 40.5 °F 39.7 °F 29.9 in SE 7.8 mph 12.8 mph 97 % 0 in
07:03 40.5 °F 39.7 °F 29.9 in SSE 6.3 mph 12.8 mph 97 % 0 in
07:08 40.5 °F 39.7 °F 29.9 in SE 6.3 mph 10.7 mph 97 % 0 in
07:12 40.5 °F 39.7 °F 29.9 in ESE 8.1 mph 11 mph 97 % 0 in
07:18 40.5 °F 39.7 °F 29.9 in SSE 4 mph 12.1 mph 97 % 0 in
07:22 40.6 °F 39.9 °F 29.9 in SE 4.3 mph 12.1 mph 97 % 0 in
07:27 40.6 °F 39.9 °F 29.9 in South 5.8 mph 10.3 mph 97 % 0 in
07:32 40.6 °F 39.9 °F 29.9 in SSE 5.4 mph 8.7 mph 97 % 0 in
07:37 40.6 °F 39.9 °F 29.9 in SSE 6.5 mph 9.6 mph 97 % 0 in
07:42 40.8 °F 39.9 °F 29.9 in SSE 3.4 mph 9.6 mph 97 % 0 in
07:47 40.8 °F 39.9 °F 29.9 in SSE 6.7 mph 8.7 mph 97 % 0 in
07:52 40.8 °F 39.9 °F 29.9 in SSE 7.8 mph 8.5 mph 97 % 0 in
07:57 40.8 °F 39.9 °F 29.9 in SSE 6.5 mph 10.5 mph 97 % 0 in
08:02 40.8 °F 39.9 °F 29.9 in SE 8.7 mph 10.5 mph 97 % 0 in
08:07 40.8 °F 39.9 °F 29.9 in SSE 3.6 mph 10.5 mph 97 % 0 in
08:12 41 °F 39.9 °F 29.9 in SSE 4.9 mph 9.8 mph 96 % 0 in
08:17 41 °F 39.9 °F 29.9 in SSE 4.7 mph 10.7 mph 96 % 0 in
08:22 41 °F 39.9 °F 29.9 in SSE 5.4 mph 10.7 mph 96 % 0 in
08:27 41 °F 39.9 °F 29.9 in SSW 4.9 mph 9.8 mph 96 % 0 in
08:32 41 °F 39.9 °F 29.9 in SSE 4.9 mph 7.8 mph 96 % 0 in
08:37 41 °F 39.9 °F 29.9 in SSE 7.2 mph 8.5 mph 96 % 0 in
08:42 41 °F 39.9 °F 29.9 in South 6 mph 10.3 mph 96 % 0 in
08:47 41 °F 39.9 °F 29.9 in SSE 4.9 mph 10.3 mph 96 % 0 in
08:52 41 °F 39.9 °F 29.9 in SSE 3.8 mph 10.1 mph 96 % 0 in
08:57 41 °F 40.3 °F 29.9 in SSE 5.8 mph 10.5 mph 97 % 0 in
09:02 40.8 °F 39.9 °F 29.9 in South 4.9 mph 10.5 mph 97 % 0 in
09:07 41 °F 40.3 °F 29.9 in SE 5.6 mph 10.5 mph 97 % 0 in
09:12 41 °F 40.3 °F 29.9 in South 6.5 mph 11 mph 97 % 0 in
09:17 41 °F 40.3 °F 29.9 in SSE 10.1 mph 12.3 mph 97 % 0 in
09:22 41 °F 40.3 °F 29.9 in South 6.5 mph 12.3 mph 97 % 0 in
09:27 41 °F 40.3 °F 29.9 in South 9.8 mph 11 mph 97 % 0 in
09:32 41 °F 40.3 °F 29.9 in SE 6.5 mph 11 mph 97 % 0 in
09:37 41 °F 40.3 °F 29.9 in SSE 7.4 mph 12.3 mph 97 % 0 in
09:42 41 °F 40.3 °F 29.9 in South 7.8 mph 12.3 mph 97 % 0 in
09:47 41.2 °F 40.5 °F 29.9 in SSE 8.5 mph 9.8 mph 97 % 0 in
09:52 41.2 °F 40.5 °F 29.9 in SSE 6.3 mph 10.7 mph 97 % 0 in
09:57 41.2 °F 40.5 °F 29.9 in South 3.1 mph 10.7 mph 97 % 0 in
10:02 41.2 °F 40.5 °F 29.9 in South 3.6 mph 10.7 mph 97 % 0 in
10:07 41.2 °F 40.5 °F 29.9 in SE 4 mph 8.1 mph 97 % 0 in
10:12 41.2 °F 40.5 °F 29.9 in SSE 3.8 mph 9.8 mph 97 % 0 in
10:17 41.2 °F 40.5 °F 29.9 in SE 5.4 mph 10.3 mph 97 % 0 in
10:23 41.4 °F 40.6 °F 29.9 in South 4.9 mph 10.3 mph 97 % 0 in
10:28 41.4 °F 40.6 °F 29.9 in SSE 5.6 mph 10.3 mph 97 % 0 in
10:33 41.4 °F 40.8 °F 29.9 in South 4.3 mph 10.3 mph 98 % 0 in
10:38 41.4 °F 40.8 °F 29.9 in SSE 5.4 mph 10.7 mph 98 % 0 in
10:43 41.4 °F 40.8 °F 29.9 in SSE 3.6 mph 10.7 mph 98 % 0 in
10:48 41.5 °F 41 °F 29.9 in SSE 3.6 mph 8.1 mph 98 % 0 in
10:53 41.5 °F 41 °F 29.9 in SSE 4.7 mph 7.4 mph 98 % 0.01 in
10:58 41.5 °F 41 °F 29.9 in SE 3.4 mph 9.6 mph 98 % 0.01 in
11:03 41.5 °F 41 °F 29.9 in SSE 4 mph 9.6 mph 98 % 0.01 in
11:08 41.5 °F 41 °F 29.9 in SSE 3.8 mph 7.2 mph 98 % 0.01 in
11:10 41.7 °F 41.2 °F 29.9 in SSE 2.7 mph 7.2 mph 98 % 0.01 in
11:15 41.7 °F 41.2 °F 29.9 in SE 2.7 mph 8.1 mph 98 % 0.01 in
11:20 41.9 °F 41.4 °F 29.9 in SSE 3.1 mph 8.1 mph 98 % 0.01 in
11:25 41.9 °F 41.4 °F 29.9 in Calm   9.4 mph 98 % 0.01 in
11:30 41.9 °F 41.4 °F 29.9 in SSE 7.2 mph 9.4 mph 98 % 0.01 in
11:35 42.1 °F 41.5 °F 29.9 in South 4.3 mph 8.7 mph 98 % 0.01 in
11:40 42.1 °F 41.5 °F 29.9 in South 6.3 mph 8.7 mph 98 % 0.01 in
11:45 42.1 °F 41.5 °F 29.9 in SSW 4 mph 8.7 mph 98 % 0.01 in
11:50 42.3 °F 41.7 °F 29.9 in SE 3.1 mph 8.7 mph 98 % 0.01 in
11:55 42.3 °F 41.7 °F 29.9 in South 5.4 mph 10.5 mph 98 % 0 in
12:00 42.4 °F 41.9 °F 29.9 in South 3.4 mph 10.5 mph 98 % 0 in
12:01 42.4 °F 41.9 °F 29.9 in SSW 3.1 mph 10.5 mph 98 % 0 in
12:06 42.6 °F 42.1 °F 29.9 in SSE 4 mph 6.3 mph 98 % 0 in
12:11 42.8 °F 42.3 °F 29.9 in South 3.8 mph 7.2 mph 98 % 0 in
12:16 42.8 °F 42.3 °F 29.9 in South 3.1 mph 7.2 mph 98 % 0 in
12:21 42.8 °F 42.3 °F 29.9 in SSE 3.8 mph 10.7 mph 98 % 0 in
12:26 42.8 °F 42.3 °F 29.9 in SSW 4.9 mph 10.7 mph 98 % 0 in
12:31 42.8 °F 42.3 °F 29.9 in SSW 5.4 mph 9.6 mph 98 % 0 in
12:36 43 °F 42.4 °F 29.9 in South 5.4 mph 5.4 mph 98 % 0 in
12:41 43 °F 42.4 °F 29.9 in South 5.6 mph 6.5 mph 98 % 0 in
12:46 43 °F 42.4 °F 29.9 in South 4.3 mph 6.5 mph 98 % 0 in
12:51 43.2 °F 42.6 °F 29.9 in South 3.8 mph 6.5 mph 98 % 0 in
12:56 43.3 °F 42.8 °F 29.9 in South 4.3 mph 6.5 mph 98 % 0 in
13:01 43.5 °F 43 °F 29.9 in South 3.1 mph 6.5 mph 98 % 0 in
13:06 43.5 °F 43 °F 29.9 in South 3.6 mph 5.8 mph 98 % 0 in
13:11 43.5 °F 43 °F 29.9 in South 5.4 mph 5.4 mph 98 % 0 in
13:16 43.5 °F 43 °F 29.9 in SSE 3.4 mph 5.8 mph 98 % 0 in
13:21 43.5 °F 43 °F 29.9 in SSE 4.3 mph 6 mph 98 % 0 in
13:26 43.5 °F 43 °F 29.9 in SSW 6.3 mph 10.3 mph 98 % 0 in
13:31 43.5 °F 43 °F 29.9 in SSW 2.9 mph 10.3 mph 98 % 0 in
13:36 43.5 °F 43 °F 29.9 in South 2.9 mph 6.5 mph 98 % 0 in
13:41 43.5 °F 43 °F 29.9 in SSE 3.6 mph 6.3 mph 98 % 0 in
13:46 43.5 °F 43 °F 29.9 in South 2 mph 6.3 mph 98 % 0 in
13:56 43.5 °F 43 °F 29.9 in SW 0.9 mph 5.8 mph 98 % 0 in
14:01 43.5 °F 43.2 °F 29.9 in Calm   5.8 mph 98 % 0 in
14:06 43.5 °F 43.2 °F 29.9 in South 4.7 mph 4.7 mph 98 % 0 in
14:11 43.9 °F 43.3 °F 29.9 in Calm   5.4 mph 98 % 0 in
14:16 44.1 °F 43.5 °F 29.9 in South 2.2 mph 5.4 mph 98 % 0 in
14:21 44.1 °F 43.5 °F 29.9 in SSW 2.5 mph 4 mph 98 % 0 in
14:26 44.1 °F 43.5 °F 29.9 in Calm   3.4 mph 98 % 0 in
14:31 44.2 °F 43.5 °F 29.9 in SSW 4 mph 4 mph 98 % 0 in
14:36 44.2 °F 43.5 °F 29.9 in Calm   4 mph 98 % 0 in
14:41 44.2 °F 43.9 °F 29.9 in Calm   4 mph 98 % 0 in
14:46 44.4 °F 44.1 °F 29.9 in SSW 2.7 mph 3.1 mph 98 % 0 in
14:51 44.8 °F 44.2 °F 29.9 in WSW 2.5 mph 3.4 mph 98 % 0 in
14:56 44.8 °F 44.2 °F 29.9 in Calm   3.4 mph 98 % 0 in
15:01 45 °F 44.2 °F 29.9 in Calm   3.4 mph 98 % 0 in
15:06 45 °F 44.2 °F 29.9 in SSW 2.5 mph 3.6 mph 98 % 0 in
15:11 45.1 °F 44.4 °F 29.9 in SW 3.4 mph 4.3 mph 98 % 0 in
15:16 45.1 °F 44.4 °F 29.9 in Calm   4.3 mph 98 % 0 in
15:18 45.1 °F 44.4 °F 29.9 in Calm   4.3 mph 98 % 0 in
15:23 45.1 °F 44.8 °F 29.9 in Calm   1.1 mph 98 % 0 in
15:28 45.1 °F 44.8 °F 29.9 in SW 3.1 mph 3.1 mph 98 % 0 in
15:33 45.1 °F 44.8 °F 29.9 in Calm   3.1 mph 98 % 0 in
15:38 45.1 °F 44.8 °F 29.9 in Calm   3.1 mph 98 % 0 in
15:43 45.1 °F 44.8 °F 29.9 in Calm   4.9 mph 98 % 0 in
15:48 45.1 °F 44.8 °F 29.9 in Calm   4.9 mph 98 % 0 in
15:53 45.1 °F 44.8 °F 29.9 in West 0.9 mph 3.4 mph 98 % 0 in
15:58 45.1 °F 44.8 °F 29.9 in Calm   4.3 mph 98 % 0 in
16:03 45.1 °F 44.8 °F 29.9 in Calm   4.3 mph 98 % 0 in
16:08 45.3 °F 45 °F 29.9 in WNW 2.2 mph 3.6 mph 98 % 0 in
16:13 45.3 °F 45 °F 29.9 in West 3.4 mph 3.8 mph 98 % 0 in
16:18 45.3 °F 45 °F 29.9 in West 4 mph 5.4 mph 98 % 0 in
16:23 45.3 °F 45 °F 29.9 in Calm   5.4 mph 98 % 0 in
16:28 45.3 °F 45 °F 29.9 in Calm   4.3 mph 98 % 0 in
16:33 45.3 °F 45 °F 29.9 in Calm   2.7 mph 98 % 0 in
16:38 45.3 °F 45 °F 29.9 in Calm   2.9 mph 98 % 0 in
16:43 45.3 °F 45 °F 29.9 in Calm   2.9 mph 98 % 0 in
16:48 45.3 °F 45 °F 29.9 in Calm     98 % 0 in
16:53 45.3 °F 45 °F 29.9 in Calm     98 % 0 in
16:58 45.3 °F 45 °F 29.9 in Calm     98 % 0 in
17:03 45.3 °F 45 °F 29.9 in Calm     98 % 0 in
17:08 45.3 °F 45 °F 29.9 in Calm     98 % 0 in
17:13 45.3 °F 45 °F 29.9 in Calm     98 % 0 in
17:18 45.3 °F 45 °F 29.9 in Calm     98 % 0 in
17:23 45.1 °F 44.8 °F 29.9 in Calm     98 % 0 in
17:28 45.1 °F 44.8 °F 29.9 in Calm     98 % 0 in
17:33 45.1 °F 44.8 °F 29.9 in Calm     98 % 0 in
17:38 45.1 °F 44.8 °F 29.9 in Calm     98 % 0 in
17:43 45.1 °F 44.8 °F 29.9 in Calm     98 % 0 in
17:48 45.1 °F 44.8 °F 29.9 in Calm     98 % 0 in
17:53 45.1 °F 44.4 °F 29.9 in Calm     98 % 0 in
17:58 45.1 °F 44.4 °F 29.9 in Calm     98 % 0 in
18:03 45.1 °F 44.4 °F 29.9 in Calm     98 % 0 in
18:08 45.1 °F 44.4 °F 29.9 in Calm     98 % 0 in
18:13 45.1 °F 44.4 °F 29.9 in Calm     98 % 0 in
18:18 45.1 °F 44.4 °F 29.9 in Calm     98 % 0.01 in
18:23 45.1 °F 44.4 °F 30 in Calm   2 mph 98 % 0.01 in
18:28 45.1 °F 44.4 °F 30 in West 3.1 mph 4.3 mph 98 % 0.01 in
18:33 45.1 °F 44.8 °F 30 in West 3.1 mph 4.3 mph 98 % 0.01 in
18:38 45.1 °F 44.8 °F 30 in Calm   3.1 mph 98 % 0.01 in
18:43 45.1 °F 44.8 °F 30 in SW 1.3 mph 5.6 mph 98 % 0.01 in
18:48 45.1 °F 44.8 °F 30 in WNW 3.4 mph 5.6 mph 98 % 0.01 in
18:53 45.1 °F 44.8 °F 30 in NW 2.5 mph 4.3 mph 98 % 0.01 in
18:58 45.1 °F 44.4 °F 30 in NNW 3.1 mph 6 mph 98 % 0.01 in
19:03 45.1 °F 44.4 °F 30 in West 3.6 mph 7.4 mph 98 % 0.01 in
19:08 45.1 °F 44.4 °F 30 in WNW 2.9 mph 7.4 mph 98 % 0.01 in
19:13 45.1 °F 44.4 °F 30 in NW 1.6 mph 7.2 mph 98 % 0.01 in
19:18 45.1 °F 44.4 °F 30 in WNW 1.1 mph 5.8 mph 98 % 0 in
19:23 45.1 °F 44.4 °F 30 in WNW 4 mph 4.3 mph 98 % 0 in
19:28 45 °F 44.2 °F 30 in North 0.9 mph 5.4 mph 98 % 0 in
19:33 45 °F 44.2 °F 30 in West 2.9 mph 6 mph 98 % 0 in
19:38 45.1 °F 44.4 °F 30 in WNW 6.3 mph 7.8 mph 98 % 0 in
19:43 45.1 °F 44.4 °F 30 in West 3.6 mph 7.8 mph 98 % 0 in
19:48 45.1 °F 44.4 °F 30 in WNW 2.9 mph 8.5 mph 98 % 0 in
19:53 45 °F 44.2 °F 30 in SSW 8.5 mph 9.6 mph 98 % 0 in
19:58 45 °F 44.2 °F 30 in West 4.3 mph 9.6 mph 98 % 0 in
20:03 45 °F 44.2 °F 30 in WNW 3.8 mph 8.7 mph 98 % 0 in
20:08 45 °F 44.2 °F 30 in WNW 6 mph 7.6 mph 98 % 0 in
20:13 44.8 °F 44.2 °F 30 in NNW 3.4 mph 7.6 mph 98 % 0 in
20:18 44.8 °F 44.2 °F 30 in Calm   6.5 mph 98 % 0 in
20:23 44.4 °F 44.1 °F 30 in WNW 2.7 mph 6.5 mph 98 % 0 in
20:28 44.4 °F 44.1 °F 30 in WNW 2.7 mph 6.3 mph 98 % 0 in
20:33 44.4 °F 44.1 °F 30 in West 3.4 mph 6.3 mph 98 % 0 in
20:38 44.4 °F 44.1 °F 30 in NW 2 mph 5.8 mph 98 % 0 in
20:43 44.2 °F 43.5 °F 30 in NW 4 mph 5.8 mph 97 % 0 in
20:48 44.2 °F 43.5 °F 30 in NW 2.5 mph 6.9 mph 97 % 0 in
20:53 44.2 °F 43.5 °F 29.9 in NNW 2.5 mph 6.9 mph 97 % 0 in
20:58 44.2 °F 43.5 °F 29.9 in Calm   7.2 mph 97 % 0 in
21:03 44.2 °F 43.9 °F 29.9 in Calm   7.2 mph 98 % 0 in
21:08 44.2 °F 43.9 °F 30 in NNW 3.1 mph 5.8 mph 98 % 0 in
21:13 44.4 °F 44.1 °F 30 in NNW 2.7 mph 5.6 mph 98 % 0 in
21:18 44.4 °F 44.1 °F 30 in Calm   5.6 mph 98 % 0 in
21:23 44.4 °F 44.1 °F 29.9 in West 3.1 mph 4.3 mph 98 % 0 in
21:28 44.4 °F 44.1 °F 29.9 in NW 3.4 mph 5.4 mph 98 % 0 in
21:33 44.2 °F 43.9 °F 29.9 in North 2.7 mph 5.4 mph 98 % 0 in
21:38 44.2 °F 43.9 °F 30 in WNW 4 mph 6 mph 98 % 0 in
21:43 44.2 °F 43.9 °F 30 in NNW 3.1 mph 6 mph 98 % 0 in
21:48 44.2 °F 43.9 °F 30 in NNW 4 mph 5.8 mph 98 % 0 in
21:53 44.2 °F 43.5 °F 30 in WNW 2.5 mph 6 mph 98 % 0 in
21:58 44.1 °F 43.5 °F 30 in NW 2 mph 6 mph 98 % 0 in
22:03 44.1 °F 43.5 °F 30 in NNW 3.1 mph 5.6 mph 98 % 0 in
22:08 44.1 °F 43.5 °F 30 in North 2.2 mph 4.7 mph 98 % 0 in
22:13 43.9 °F 43.3 °F 30 in North 3.1 mph 4 mph 98 % 0 in
22:18 43.9 °F 43.3 °F 30 in Calm   4 mph 98 % 0 in
22:23 43.5 °F 43.2 °F 30 in NW 2.7 mph 3.4 mph 98 % 0 in
22:28 43.5 °F 43.2 °F 30 in WNW 4 mph 5.8 mph 98 % 0 in
22:33 43.5 °F 43.2 °F 30 in WNW 1.6 mph 6 mph 98 % 0 in
22:38 43.5 °F 43.2 °F 30 in North 3.1 mph 6 mph 98 % 0 in
22:43 43.5 °F 43 °F 30 in Calm   6 mph 98 % 0 in
22:48 43.5 °F 43 °F 30 in Calm   6 mph 98 % 0 in
22:53 43.5 °F 43 °F 30 in North 2.2 mph 4.7 mph 98 % 0 in
22:54 43.5 °F 43 °F 30 in WNW 2.9 mph 4.7 mph 98 % 0 in
22:59 43.5 °F 43 °F 30 in Calm   7.6 mph 98 % 0 in
23:04 43.5 °F 43 °F 30 in Calm   7.6 mph 98 % 0 in
23:09 43.5 °F 43 °F 30 in WNW 1.6 mph 7.4 mph 98 % 0 in
23:14 43.5 °F 43 °F 30 in NNW 3.1 mph 5.6 mph 98 % 0 in
23:19 43.3 °F 42.8 °F 30 in NNW 2.7 mph 4.5 mph 98 % 0 in
23:24 43.3 °F 42.8 °F 30 in North 2 mph 4.3 mph 98 % 0 in
23:29 43.3 °F 42.8 °F 30 in North 3.1 mph 5.4 mph 98 % 0 in
23:34 43.3 °F 42.8 °F 30 in NNW 1.6 mph 5.4 mph 98 % 0 in
23:39 43.3 °F 42.8 °F 30 in NNE 2.5 mph 3.4 mph 98 % 0 in
23:44 43.3 °F 42.8 °F 30 in North 3.8 mph 4.7 mph 98 % 0 in
23:47 43.2 °F 42.6 °F 30 in Calm   4.7 mph 98 % 0.01 in
23:52 43.2 °F 42.6 °F 30 in Calm   6 mph 98 % 0.01 in
23:55 43.2 °F 42.6 °F 30 in Calm   6 mph 98 % 0.01 in
Le Gheer Warneton
Courtoisie de Weather Underground - 2.5 mb

Mise a jour : 16-12-17 12:15:12
Généré par Cumulus 1.9.4 (1099)